RYR58HP EGSS-EIDW
Flight info
| Callsign | RYR58HP |
|---|---|
| Flight time | 0h 59m |
| Altitude | 24000 |
| Route | NUGBO M183 SILVA/N0456F320 P86 DIDZA N14 OKSAW DCT BIBPE DCT OKTAD DCT MEDOG DCT KRAGY DCT PEMOB M17 VATRY VATRY3R |
| Aircraft | B738/M-SDE2E3FGHIRWXY/LB1 |
Departure
| Time | 2026-05-04 12:52 |
|---|---|
| Airport | London Stansted Airport (EGSS) |
Arrival
| Time | 2026-05-04 13:51 |
|---|---|
| Airport | Dublin Airport (EIDW) |
| Time | Latitude | Longitude | Altitude | Speed | Heading |
|---|---|---|---|---|---|
| 2026-05-04 12:13 | 51.89322 | 0.26087 | 357 ft | 0 kts | 223° |
| 2026-05-04 12:32 | 51.89338 | 0.26110 | 361 ft | 4 kts | 223° |
| 2026-05-04 12:32 | 51.89353 | 0.26134 | 355 ft | 4 kts | 239° |
| 2026-05-04 12:33 | 51.89355 | 0.26164 | 358 ft | 4 kts | 311° |
| 2026-05-04 12:33 | 51.89340 | 0.26190 | 361 ft | 1 kts | 313° |
| 2026-05-04 12:33 | 51.89339 | 0.26191 | 361 ft | 0 kts | 313° |
| 2026-05-04 12:36 | 51.89343 | 0.26184 | 361 ft | 2 kts | 313° |
| 2026-05-04 12:36 | 51.89363 | 0.26150 | 358 ft | 6 kts | 313° |
| 2026-05-04 12:37 | 51.89398 | 0.26088 | 351 ft | 8 kts | 312° |
| 2026-05-04 12:37 | 51.89441 | 0.26015 | 356 ft | 10 kts | 314° |
| 2026-05-04 12:37 | 51.89487 | 0.25936 | 355 ft | 10 kts | 313° |
| 2026-05-04 12:37 | 51.89527 | 0.25854 | 354 ft | 9 kts | 288° |
| 2026-05-04 12:38 | 51.89501 | 0.25766 | 355 ft | 9 kts | 223° |
| 2026-05-04 12:38 | 51.89455 | 0.25698 | 355 ft | 9 kts | 223° |
| 2026-05-04 12:38 | 51.89411 | 0.25632 | 354 ft | 9 kts | 223° |
| 2026-05-04 12:38 | 51.89368 | 0.25567 | 351 ft | 8 kts | 223° |
| 2026-05-04 12:39 | 51.89326 | 0.25503 | 351 ft | 8 kts | 223° |
| 2026-05-04 12:39 | 51.89285 | 0.25442 | 354 ft | 8 kts | 221° |
| 2026-05-04 12:39 | 51.89246 | 0.25384 | 355 ft | 7 kts | 223° |
| 2026-05-04 12:39 | 51.89241 | 0.25376 | 355 ft | 0 kts | 223° |
| 2026-05-04 12:41 | 51.89235 | 0.25367 | 358 ft | 3 kts | 223° |
| 2026-05-04 12:42 | 51.89206 | 0.25323 | 360 ft | 8 kts | 223° |
| 2026-05-04 12:42 | 51.89153 | 0.25243 | 354 ft | 12 kts | 223° |
| 2026-05-04 12:42 | 51.89093 | 0.25152 | 354 ft | 12 kts | 223° |
| 2026-05-04 12:42 | 51.89034 | 0.25064 | 358 ft | 11 kts | 223° |
| 2026-05-04 12:43 | 51.88977 | 0.24978 | 354 ft | 11 kts | 223° |
| 2026-05-04 12:43 | 51.88921 | 0.24894 | 351 ft | 11 kts | 221° |
| 2026-05-04 12:43 | 51.88867 | 0.24814 | 355 ft | 10 kts | 222° |
| 2026-05-04 12:43 | 51.88814 | 0.24735 | 357 ft | 10 kts | 223° |
| 2026-05-04 12:44 | 51.88759 | 0.24653 | 343 ft | 14 kts | 222° |
| 2026-05-04 12:44 | 51.88688 | 0.24547 | 343 ft | 14 kts | 223° |
| 2026-05-04 12:44 | 51.88621 | 0.24444 | 342 ft | 13 kts | 224° |
| 2026-05-04 12:44 | 51.88556 | 0.24346 | 342 ft | 13 kts | 223° |
| 2026-05-04 12:45 | 51.88492 | 0.24250 | 341 ft | 12 kts | 223° |
| 2026-05-04 12:45 | 51.88430 | 0.24157 | 336 ft | 12 kts | 223° |
| 2026-05-04 12:45 | 51.88369 | 0.24066 | 339 ft | 12 kts | 223° |
| 2026-05-04 12:45 | 51.88311 | 0.23978 | 335 ft | 11 kts | 223° |
| 2026-05-04 12:46 | 51.88253 | 0.23891 | 337 ft | 11 kts | 223° |
| 2026-05-04 12:46 | 51.88197 | 0.23808 | 333 ft | 11 kts | 222° |
| 2026-05-04 12:46 | 51.88143 | 0.23728 | 333 ft | 10 kts | 223° |
| 2026-05-04 12:46 | 51.88091 | 0.23649 | 335 ft | 10 kts | 223° |
| 2026-05-04 12:47 | 51.88039 | 0.23572 | 332 ft | 10 kts | 223° |
| 2026-05-04 12:47 | 51.87982 | 0.23486 | 336 ft | 12 kts | 223° |
| 2026-05-04 12:47 | 51.87923 | 0.23398 | 332 ft | 11 kts | 223° |
| 2026-05-04 12:47 | 51.87865 | 0.23312 | 336 ft | 11 kts | 223° |
| 2026-05-04 12:48 | 51.87810 | 0.23227 | 336 ft | 11 kts | 223° |
| 2026-05-04 12:48 | 51.87755 | 0.23145 | 332 ft | 11 kts | 223° |
| 2026-05-04 12:48 | 51.87733 | 0.23042 | 336 ft | 10 kts | 291° |
| 2026-05-04 12:48 | 51.87778 | 0.22953 | 336 ft | 10 kts | 313° |
| 2026-05-04 12:49 | 51.87825 | 0.22872 | 335 ft | 10 kts | 313° |
| 2026-05-04 12:49 | 51.87867 | 0.22799 | 334 ft | 4 kts | 313° |
| 2026-05-04 12:49 | 51.87869 | 0.22796 | 334 ft | 0 kts | 313° |
| 2026-05-04 12:50 | 51.87873 | 0.22788 | 334 ft | 2 kts | 313° |
| 2026-05-04 12:50 | 51.87890 | 0.22759 | 332 ft | 5 kts | 313° |
| 2026-05-04 12:50 | 51.87913 | 0.22718 | 332 ft | 5 kts | 313° |
| 2026-05-04 12:51 | 51.87942 | 0.22684 | 333 ft | 6 kts | 344° |
| 2026-05-04 12:51 | 51.87992 | 0.22717 | 330 ft | 12 kts | 41° |
| 2026-05-04 12:51 | 51.88225 | 0.23063 | 335 ft | 87 kts | 43° |
| 2026-05-04 12:51 | 51.88859 | 0.24008 | 350 ft | 158 kts | 41° |
| 2026-05-04 12:52 | 51.89722 | 0.25310 | 1009 ft | 176 kts | 41° |
| 2026-05-04 12:52 | 51.90663 | 0.26692 | 1951 ft | 184 kts | 41° |
| 2026-05-04 12:52 | 51.91627 | 0.28116 | 2694 ft | 197 kts | 43° |
| 2026-05-04 12:52 | 51.92765 | 0.29599 | 2922 ft | 223 kts | 26° |
| 2026-05-04 12:53 | 51.94326 | 0.30095 | 3323 ft | 237 kts | 354° |
| 2026-05-04 12:53 | 51.95865 | 0.29126 | 3939 ft | 242 kts | 321° |
| 2026-05-04 12:53 | 51.96844 | 0.26981 | 4644 ft | 244 kts | 289° |
| 2026-05-04 12:53 | 51.97228 | 0.24295 | 4976 ft | 246 kts | 279° |
| 2026-05-04 12:54 | 51.97474 | 0.21508 | 5278 ft | 253 kts | 277° |
| 2026-05-04 12:54 | 51.97718 | 0.18713 | 6242 ft | 249 kts | 277° |
| 2026-05-04 12:54 | 51.97967 | 0.15925 | 7093 ft | 250 kts | 278° |
| 2026-05-04 12:54 | 51.98244 | 0.13133 | 7914 ft | 251 kts | 278° |
| 2026-05-04 12:55 | 51.98536 | 0.10337 | 8754 ft | 253 kts | 278° |
| 2026-05-04 12:55 | 51.98839 | 0.07504 | 9524 ft | 258 kts | 278° |
| 2026-05-04 12:55 | 51.98843 | 0.04466 | 9497 ft | 274 kts | 257° |
| 2026-05-04 12:55 | 51.98406 | 0.01424 | 9975 ft | 281 kts | 257° |
| 2026-05-04 12:56 | 51.97988 | -0.01683 | 10759 ft | 283 kts | 257° |
| 2026-05-04 12:56 | 51.97577 | -0.04843 | 11195 ft | 295 kts | 257° |
| 2026-05-04 12:56 | 51.97155 | -0.08117 | 11073 ft | 294 kts | 257° |
| 2026-05-04 12:56 | 51.96741 | -0.11308 | 11164 ft | 285 kts | 257° |
| 2026-05-04 12:57 | 51.96325 | -0.14502 | 11232 ft | 297 kts | 257° |
| 2026-05-04 12:57 | 51.95880 | -0.17907 | 11427 ft | 321 kts | 257° |
| 2026-05-04 12:57 | 51.95401 | -0.21556 | 11675 ft | 341 kts | 257° |
| 2026-05-04 12:57 | 51.94902 | -0.25367 | 12240 ft | 349 kts | 257° |
| 2026-05-04 12:58 | 51.94394 | -0.29237 | 12990 ft | 352 kts | 257° |
| 2026-05-04 12:58 | 51.94055 | -0.31818 | 13508 ft | 354 kts | 257° |
| 2026-05-04 12:58 | 51.93667 | -0.34764 | 14038 ft | 357 kts | 257° |
| 2026-05-04 12:58 | 51.93144 | -0.38722 | 14690 ft | 361 kts | 257° |
| 2026-05-04 12:59 | 51.92617 | -0.42707 | 15330 ft | 364 kts | 257° |
| 2026-05-04 12:59 | 51.92080 | -0.46746 | 15976 ft | 368 kts | 256° |
| 2026-05-04 12:59 | 51.91538 | -0.50818 | 16631 ft | 372 kts | 256° |
| 2026-05-04 12:59 | 51.90989 | -0.54929 | 17232 ft | 376 kts | 256° |
| 2026-05-04 13:00 | 51.90432 | -0.59088 | 17872 ft | 380 kts | 256° |
| 2026-05-04 13:00 | 51.89867 | -0.63291 | 18476 ft | 383 kts | 256° |
| 2026-05-04 13:00 | 51.89297 | -0.67519 | 19021 ft | 386 kts | 256° |
| 2026-05-04 13:00 | 51.88721 | -0.71785 | 19599 ft | 389 kts | 256° |
| 2026-05-04 13:01 | 51.88140 | -0.76074 | 20174 ft | 391 kts | 256° |
| 2026-05-04 13:01 | 51.87554 | -0.80388 | 20708 ft | 394 kts | 256° |
| 2026-05-04 13:01 | 51.86964 | -0.84731 | 21246 ft | 397 kts | 256° |
| 2026-05-04 13:01 | 51.86366 | -0.89109 | 21780 ft | 400 kts | 256° |
| 2026-05-04 13:02 | 51.85762 | -0.93511 | 22302 ft | 402 kts | 256° |
| 2026-05-04 13:02 | 51.84957 | -0.97844 | 22824 ft | 404 kts | 245° |
| 2026-05-04 13:02 | 51.83660 | -1.01816 | 23233 ft | 407 kts | 235° |
| 2026-05-04 13:02 | 51.81917 | -1.05429 | 23660 ft | 409 kts | 225° |
| 2026-05-04 13:03 | 51.79907 | -1.08694 | 24014 ft | 409 kts | 224° |
| 2026-05-04 13:03 | 51.77886 | -1.11907 | 24033 ft | 407 kts | 224° |
| 2026-05-04 13:03 | 51.75865 | -1.15128 | 24045 ft | 409 kts | 224° |
| 2026-05-04 13:03 | 51.73850 | -1.18367 | 24048 ft | 409 kts | 224° |
| 2026-05-04 13:04 | 51.71839 | -1.21622 | 24024 ft | 409 kts | 224° |
| 2026-05-04 13:04 | 51.69835 | -1.24878 | 24022 ft | 409 kts | 224° |
| 2026-05-04 13:04 | 51.67830 | -1.28134 | 24024 ft | 409 kts | 224° |
| 2026-05-04 13:04 | 51.65822 | -1.31387 | 24024 ft | 409 kts | 224° |
| 2026-05-04 13:05 | 51.64062 | -1.34961 | 24008 ft | 411 kts | 241° |
| 2026-05-04 13:05 | 51.63127 | -1.39294 | 24049 ft | 413 kts | 259° |
| 2026-05-04 13:05 | 51.63020 | -1.43926 | 24055 ft | 416 kts | 274° |
| 2026-05-04 13:05 | 51.63690 | -1.48468 | 24042 ft | 422 kts | 291° |
| 2026-05-04 13:06 | 51.65029 | -1.52696 | 24059 ft | 425 kts | 297° |
| 2026-05-04 13:06 | 51.66477 | -1.56853 | 24052 ft | 427 kts | 297° |
| 2026-05-04 13:06 | 51.67913 | -1.61052 | 24048 ft | 428 kts | 296° |
| 2026-05-04 13:06 | 51.69311 | -1.65299 | 24048 ft | 430 kts | 294° |
| 2026-05-04 13:07 | 51.70376 | -1.69835 | 24114 ft | 437 kts | 284° |
| 2026-05-04 13:07 | 51.70949 | -1.74653 | 24381 ft | 439 kts | 274° |
| 2026-05-04 13:07 | 51.71247 | -1.79560 | 24820 ft | 440 kts | 274° |
| 2026-05-04 13:07 | 51.71558 | -1.84465 | 25247 ft | 441 kts | 275° |
| 2026-05-04 13:08 | 51.72080 | -1.89352 | 25617 ft | 445 kts | 280° |
| 2026-05-04 13:08 | 51.72802 | -1.94224 | 25984 ft | 448 kts | 282° |
| 2026-05-04 13:08 | 51.73577 | -1.99120 | 26229 ft | 453 kts | 282° |
| 2026-05-04 13:08 | 51.74361 | -2.04063 | 26506 ft | 456 kts | 282° |
| 2026-05-04 13:09 | 51.75133 | -2.09036 | 26899 ft | 457 kts | 282° |
| 2026-05-04 13:09 | 51.75880 | -2.13965 | 27272 ft | 458 kts | 281° |
| 2026-05-04 13:09 | 51.76625 | -2.18976 | 27599 ft | 460 kts | 281° |
| 2026-05-04 13:09 | 51.77365 | -2.24011 | 27919 ft | 462 kts | 281° |
| 2026-05-04 13:10 | 51.78104 | -2.29076 | 28228 ft | 464 kts | 281° |
| 2026-05-04 13:10 | 51.78844 | -2.34167 | 28524 ft | 466 kts | 281° |
| 2026-05-04 13:10 | 51.79585 | -2.39270 | 28880 ft | 467 kts | 282° |
| 2026-05-04 13:10 | 51.80325 | -2.44370 | 29368 ft | 465 kts | 282° |
| 2026-05-04 13:11 | 51.80823 | -2.47808 | 29587 ft | 466 kts | 282° |
| 2026-05-04 13:11 | 51.81801 | -2.54598 | 29896 ft | 470 kts | 282° |
| 2026-05-04 13:11 | 51.82523 | -2.59747 | 30278 ft | 469 kts | 281° |
| 2026-05-04 13:11 | 51.83220 | -2.64883 | 30655 ft | 467 kts | 281° |
| 2026-05-04 13:12 | 51.83907 | -2.70015 | 30989 ft | 466 kts | 281° |
| 2026-05-04 13:12 | 51.84589 | -2.75144 | 31258 ft | 468 kts | 281° |
| 2026-05-04 13:12 | 51.85273 | -2.80282 | 31556 ft | 468 kts | 281° |
| 2026-05-04 13:12 | 51.85956 | -2.85423 | 31891 ft | 468 kts | 281° |
| 2026-05-04 13:13 | 51.86641 | -2.90577 | 32054 ft | 471 kts | 281° |
| 2026-05-04 13:13 | 51.88025 | -3.01027 | 32044 ft | 475 kts | 282° |
| 2026-05-04 13:14 | 51.89395 | -3.11442 | 32028 ft | 469 kts | 282° |
| 2026-05-04 13:14 | 51.90734 | -3.21701 | 32038 ft | 469 kts | 282° |
| 2026-05-04 13:15 | 51.92074 | -3.32048 | 32032 ft | 469 kts | 282° |
| 2026-05-04 13:15 | 51.93407 | -3.42408 | 32036 ft | 470 kts | 282° |
| 2026-05-04 13:16 | 51.94735 | -3.52804 | 32033 ft | 471 kts | 282° |
| 2026-05-04 13:16 | 51.96061 | -3.63238 | 32034 ft | 473 kts | 282° |
| 2026-05-04 13:17 | 51.97387 | -3.73707 | 32031 ft | 475 kts | 282° |
| 2026-05-04 13:17 | 51.98700 | -3.84153 | 32015 ft | 476 kts | 282° |
| 2026-05-04 13:18 | 52.00016 | -3.94709 | 32028 ft | 478 kts | 283° |
| 2026-05-04 13:18 | 52.01108 | -4.03530 | 32034 ft | 481 kts | 283° |
| 2026-05-04 13:19 | 52.02423 | -4.14224 | 32037 ft | 485 kts | 283° |
| 2026-05-04 13:19 | 52.03736 | -4.24998 | 32035 ft | 487 kts | 283° |
| 2026-05-04 13:20 | 52.05044 | -4.35822 | 32040 ft | 489 kts | 283° |
| 2026-05-04 13:20 | 52.06344 | -4.46661 | 32028 ft | 489 kts | 283° |
| 2026-05-04 13:21 | 52.07636 | -4.57528 | 32043 ft | 490 kts | 283° |
| 2026-05-04 13:21 | 52.08922 | -4.68423 | 32041 ft | 490 kts | 283° |
| 2026-05-04 13:22 | 52.10195 | -4.79310 | 32041 ft | 490 kts | 283° |
| 2026-05-04 13:22 | 52.11461 | -4.90214 | 32043 ft | 490 kts | 283° |
| 2026-05-04 13:23 | 52.12702 | -5.01048 | 32020 ft | 476 kts | 283° |
| 2026-05-04 13:23 | 52.13290 | -5.06259 | 32032 ft | 461 kts | 283° |
| 2026-05-04 13:23 | 52.14062 | -5.11133 | 32013 ft | 441 kts | 298° |
| 2026-05-04 13:23 | 52.15615 | -5.15245 | 32057 ft | 416 kts | 315° |
| 2026-05-04 13:24 | 52.17605 | -5.18481 | 32002 ft | 394 kts | 329° |
| 2026-05-04 13:24 | 52.19848 | -5.20788 | 32048 ft | 371 kts | 340° |
| 2026-05-04 13:24 | 52.22107 | -5.22655 | 32030 ft | 358 kts | 341° |
| 2026-05-04 13:25 | 52.28758 | -5.27939 | 32076 ft | 363 kts | 341° |
| 2026-05-04 13:25 | 52.33365 | -5.31700 | 32068 ft | 374 kts | 340° |
| 2026-05-04 13:26 | 52.37998 | -5.35540 | 32054 ft | 373 kts | 340° |
| 2026-05-04 13:26 | 52.42606 | -5.39362 | 32050 ft | 369 kts | 340° |
| 2026-05-04 13:27 | 52.47164 | -5.43145 | 32058 ft | 365 kts | 340° |
| 2026-05-04 13:27 | 52.51649 | -5.46876 | 31800 ft | 357 kts | 341° |
| 2026-05-04 13:28 | 52.53864 | -5.48721 | 31409 ft | 357 kts | 341° |
| 2026-05-04 13:28 | 52.56095 | -5.50501 | 30997 ft | 354 kts | 346° |
| 2026-05-04 13:28 | 52.58394 | -5.51802 | 30672 ft | 347 kts | 351° |
| 2026-05-04 13:28 | 52.60703 | -5.52894 | 30370 ft | 344 kts | 352° |
| 2026-05-04 13:29 | 52.63034 | -5.53978 | 29609 ft | 353 kts | 351° |
| 2026-05-04 13:29 | 52.65417 | -5.55131 | 28802 ft | 362 kts | 349° |
| 2026-05-04 13:29 | 52.67849 | -5.56356 | 28073 ft | 368 kts | 348° |
| 2026-05-04 13:29 | 52.70316 | -5.57621 | 27366 ft | 374 kts | 348° |
| 2026-05-04 13:30 | 52.72820 | -5.58915 | 26676 ft | 380 kts | 347° |
| 2026-05-04 13:30 | 52.75358 | -5.60226 | 26002 ft | 384 kts | 347° |
| 2026-05-04 13:30 | 52.77921 | -5.61550 | 25340 ft | 388 kts | 347° |
| 2026-05-04 13:30 | 52.80513 | -5.62891 | 24695 ft | 392 kts | 347° |
| 2026-05-04 13:31 | 52.83129 | -5.64245 | 24059 ft | 395 kts | 346° |
| 2026-05-04 13:31 | 52.85768 | -5.65614 | 23387 ft | 398 kts | 346° |
| 2026-05-04 13:31 | 52.88415 | -5.66989 | 22645 ft | 400 kts | 345° |
| 2026-05-04 13:31 | 52.91081 | -5.68376 | 21925 ft | 402 kts | 345° |
| 2026-05-04 13:32 | 52.93718 | -5.69750 | 21231 ft | 403 kts | 345° |
| 2026-05-04 13:32 | 52.96397 | -5.71147 | 20541 ft | 404 kts | 344° |
| 2026-05-04 13:32 | 52.99078 | -5.72547 | 19874 ft | 404 kts | 344° |
| 2026-05-04 13:32 | 53.01762 | -5.73951 | 19211 ft | 405 kts | 344° |
| 2026-05-04 13:33 | 53.04449 | -5.75357 | 18523 ft | 406 kts | 344° |
| 2026-05-04 13:33 | 53.07146 | -5.76769 | 17733 ft | 406 kts | 344° |
| 2026-05-04 13:33 | 53.09818 | -5.78172 | 16922 ft | 399 kts | 343° |
| 2026-05-04 13:33 | 53.12311 | -5.80120 | 16113 ft | 396 kts | 324° |
| 2026-05-04 13:34 | 53.14249 | -5.83315 | 15384 ft | 390 kts | 307° |
| 2026-05-04 13:34 | 53.15555 | -5.87235 | 14655 ft | 384 kts | 294° |
| 2026-05-04 13:34 | 53.16594 | -5.91292 | 13939 ft | 377 kts | 293° |
| 2026-05-04 13:34 | 53.17595 | -5.95291 | 13147 ft | 371 kts | 293° |
| 2026-05-04 13:35 | 53.18585 | -5.99222 | 12365 ft | 365 kts | 293° |
| 2026-05-04 13:35 | 53.20549 | -6.06895 | 10859 ft | 354 kts | 294° |
| 2026-05-04 13:35 | 53.21508 | -6.10611 | 10420 ft | 341 kts | 294° |
| 2026-05-04 13:36 | 53.22433 | -6.14187 | 10021 ft | 330 kts | 294° |
| 2026-05-04 13:36 | 53.23310 | -6.17585 | 10002 ft | 307 kts | 294° |
| 2026-05-04 13:36 | 53.24127 | -6.20759 | 9937 ft | 289 kts | 294° |
| 2026-05-04 13:36 | 53.24908 | -6.23798 | 9851 ft | 280 kts | 294° |
| 2026-05-04 13:37 | 53.25664 | -6.26737 | 9699 ft | 273 kts | 294° |
| 2026-05-04 13:37 | 53.26411 | -6.29653 | 9432 ft | 272 kts | 294° |
| 2026-05-04 13:37 | 53.27154 | -6.32554 | 9124 ft | 271 kts | 294° |
| 2026-05-04 13:37 | 53.27643 | -6.34465 | 8998 ft | 268 kts | 294° |
| 2026-05-04 13:38 | 53.28545 | -6.38222 | 8830 ft | 258 kts | 283° |
| 2026-05-04 13:38 | 53.28495 | -6.41153 | 8698 ft | 252 kts | 251° |
| 2026-05-04 13:38 | 53.27648 | -6.43664 | 8518 ft | 248 kts | 229° |
| 2026-05-04 13:38 | 53.26380 | -6.45602 | 8261 ft | 247 kts | 219° |
| 2026-05-04 13:39 | 53.25022 | -6.47362 | 8007 ft | 247 kts | 218° |
| 2026-05-04 13:39 | 53.23668 | -6.49110 | 7767 ft | 245 kts | 218° |
| 2026-05-04 13:39 | 53.22330 | -6.50864 | 7531 ft | 244 kts | 221° |
| 2026-05-04 13:39 | 53.21358 | -6.53130 | 7256 ft | 242 kts | 250° |
| 2026-05-04 13:40 | 53.20801 | -6.55760 | 7151 ft | 241 kts | 250° |
| 2026-05-04 13:40 | 53.20218 | -6.58387 | 7090 ft | 241 kts | 250° |
| 2026-05-04 13:40 | 53.19647 | -6.61000 | 7061 ft | 236 kts | 256° |
| 2026-05-04 13:40 | 53.19645 | -6.63598 | 7067 ft | 218 kts | 289° |
| 2026-05-04 13:41 | 53.20405 | -6.65686 | 6997 ft | 211 kts | 315° |
| 2026-05-04 13:41 | 53.21613 | -6.67061 | 6834 ft | 212 kts | 338° |
| 2026-05-04 13:41 | 53.23045 | -6.67573 | 6669 ft | 211 kts | 354° |
| 2026-05-04 13:42 | 53.25935 | -6.67989 | 6317 ft | 206 kts | 354° |
| 2026-05-04 13:42 | 53.27360 | -6.68196 | 6142 ft | 205 kts | 354° |
| 2026-05-04 13:42 | 53.28769 | -6.68403 | 5981 ft | 202 kts | 354° |
| 2026-05-04 13:42 | 53.30166 | -6.68610 | 5817 ft | 200 kts | 354° |
| 2026-05-04 13:43 | 53.31548 | -6.68816 | 5658 ft | 199 kts | 354° |
| 2026-05-04 13:43 | 53.32929 | -6.69024 | 5511 ft | 200 kts | 354° |
| 2026-05-04 13:43 | 53.34333 | -6.69235 | 5305 ft | 206 kts | 354° |
| 2026-05-04 13:43 | 53.35762 | -6.69451 | 5110 ft | 205 kts | 355° |
| 2026-05-04 13:44 | 53.37164 | -6.69558 | 4921 ft | 200 kts | 4° |
| 2026-05-04 13:44 | 53.38513 | -6.69309 | 4762 ft | 197 kts | 6° |
| 2026-05-04 13:44 | 53.39894 | -6.69076 | 4615 ft | 197 kts | 5° |
| 2026-05-04 13:44 | 53.41260 | -6.68857 | 4457 ft | 198 kts | 5° |
| 2026-05-04 13:45 | 53.42618 | -6.68643 | 4312 ft | 199 kts | 5° |
| 2026-05-04 13:45 | 53.43547 | -6.68436 | 4188 ft | 200 kts | 15° |
| 2026-05-04 13:45 | 53.45009 | -6.66643 | 3985 ft | 201 kts | 54° |
| 2026-05-04 13:45 | 53.45429 | -6.64416 | 3813 ft | 205 kts | 86° |
| 2026-05-04 13:46 | 53.45449 | -6.62032 | 3651 ft | 205 kts | 83° |
| 2026-05-04 13:46 | 53.45540 | -6.59652 | 3501 ft | 203 kts | 90° |
| 2026-05-04 13:46 | 53.45404 | -6.57349 | 3341 ft | 193 kts | 94° |
| 2026-05-04 13:46 | 53.45257 | -6.55167 | 3175 ft | 184 kts | 93° |
| 2026-05-04 13:47 | 53.45131 | -6.53035 | 3037 ft | 184 kts | 92° |
| 2026-05-04 13:47 | 53.45010 | -6.50924 | 2887 ft | 179 kts | 92° |
| 2026-05-04 13:47 | 53.44892 | -6.48873 | 2648 ft | 174 kts | 93° |
| 2026-05-04 13:47 | 53.44779 | -6.46919 | 2428 ft | 162 kts | 92° |
| 2026-05-04 13:48 | 53.44674 | -6.45073 | 2245 ft | 156 kts | 92° |
| 2026-05-04 13:48 | 53.44572 | -6.43272 | 2026 ft | 154 kts | 92° |
| 2026-05-04 13:48 | 53.44470 | -6.41484 | 1815 ft | 154 kts | 94° |
| 2026-05-04 13:48 | 53.44369 | -6.39708 | 1614 ft | 153 kts | 93° |
| 2026-05-04 13:49 | 53.44269 | -6.37927 | 1416 ft | 153 kts | 94° |
| 2026-05-04 13:49 | 53.44168 | -6.36153 | 1198 ft | 152 kts | 92° |
| 2026-05-04 13:49 | 53.44065 | -6.34386 | 1001 ft | 153 kts | 92° |
| 2026-05-04 13:49 | 53.43965 | -6.32627 | 798 ft | 153 kts | 92° |
| 2026-05-04 13:50 | 53.43874 | -6.30832 | 583 ft | 155 kts | 93° |
| 2026-05-04 13:50 | 53.43771 | -6.29033 | 378 ft | 154 kts | 94° |
| 2026-05-04 13:50 | 53.43670 | -6.27265 | 215 ft | 149 kts | 92° |
| 2026-05-04 13:50 | 53.43589 | -6.25676 | 214 ft | 120 kts | 96° |
| 2026-05-04 13:51 | 53.43535 | -6.24775 | 212 ft | 45 kts | 95° |
| 2026-05-04 13:51 | 53.43491 | -6.24552 | 218 ft | 16 kts | 161° |
| 2026-05-04 13:51 | 53.43391 | -6.24566 | 213 ft | 11 kts | 195° |
| 2026-05-04 13:51 | 53.43358 | -6.24669 | 210 ft | 11 kts | 273° |
| 2026-05-04 13:52 | 53.43371 | -6.24919 | 210 ft | 11 kts | 275° |
| 2026-05-04 13:52 | 53.43378 | -6.25041 | 210 ft | 10 kts | 276° |
| 2026-05-04 13:52 | 53.43385 | -6.25160 | 215 ft | 10 kts | 275° |
| 2026-05-04 13:53 | 53.43391 | -6.25276 | 214 ft | 10 kts | 275° |
| 2026-05-04 13:53 | 53.43398 | -6.25389 | 210 ft | 10 kts | 275° |
| 2026-05-04 13:53 | 53.43404 | -6.25498 | 213 ft | 9 kts | 276° |
| 2026-05-04 13:54 | 53.43351 | -6.25644 | 210 ft | 9 kts | 170° |
| 2026-05-04 13:54 | 53.43295 | -6.25605 | 214 ft | 9 kts | 156° |
| 2026-05-04 13:54 | 53.43195 | -6.25510 | 213 ft | 8 kts | 118° |
| 2026-05-04 13:55 | 53.43200 | -6.25419 | 210 ft | 8 kts | 68° |
| 2026-05-04 13:55 | 53.43231 | -6.25246 | 213 ft | 8 kts | 93° |
| 2026-05-04 13:55 | 53.43223 | -6.25160 | 214 ft | 7 kts | 115° |
| 2026-05-04 13:56 | 53.43177 | -6.25145 | 210 ft | 6 kts | 185° |
| 2026-05-04 13:56 | 53.43155 | -6.25149 | 212 ft | 2 kts | 186° |
| 2026-05-04 13:56 | 53.43134 | -6.25153 | 218 ft | 1 kts | 185° |
| 2026-05-04 13:57 | 53.43131 | -6.25153 | 218 ft | 0 kts | 185° |